Date,TemperatureHighF,TemperatureAvgF,TemperatureLowF,DewpointHighF,DewpointAvgF,DewpointLowF,HumidityHigh,HumidityAvg,HumidityLow,PressureMaxIn,PressureMinIn,WindSpeedMaxMPH,WindSpeedAvgMPH,GustSpeedMaxMPH,PrecipitationSumIn
2013-2-1,60,38,18,23,17,13,84,49,19,30.39,30.10,3,0,0,0.00
2013-2-2,60,41,23,21,18,14,73,44,18,30.42,30.18,3,0,0,0.00
2013-2-3,54,40,25,27,18,-100,71,46,21,30.25,29.89,2,-10,0,0.00
2013-2-4,61,46,30,27,22,16,77,43,18,30.07,29.84,10,0,0,0.00
2013-2-5,59,36,26,22,17,12,72,49,16,30.12,29.87,0,0,0,0.00
2013-2-6,64,43,22,25,18,14,71,42,21,30.05,29.72,5,0,0,0.00
2013-2-7,61,42,28,25,18,10,74,43,15,30.13,29.85,6,0,0,0.00
2013-2-8,60,43,29,21,18,14,66,40,22,30.09,29.66,8,1,0,0.00
2013-2-9,50,35,21,23,14,2,78,47,18,29.85,29.53,12,2,0,0.00
2013-2-10,46,33,19,21,12,6,73,46,21,30.01,29.81,6,0,0,0.00
2013-2-11,48,33,17,21,14,1,82,53,15,30.13,29.86,5,0,0,0.00
2013-2-12,44,33,24,20,10,3,63,41,18,30.22,29.89,9,2,0,0.00
2013-2-13,51,34,16,14,10,6,68,39,20,30.30,30.01,11,1,0,0.00
2013-2-14,55,39,22,18,14,12,68,40,19,30.21,29.97,11,1,0,0.00
2013-2-15,54,38,21,20,10,-2,75,38,10,30.39,30.15,10,1,0,0.00
2013-2-16,62,39,19,10,5,-4,63,30,8,30.50,30.10,3,0,0,0.00
2013-2-17,62,41,17,7,3,-1,52,26,9,30.15,29.62,4,1,0,0.00
2013-2-18,56,42,28,16,-4,-21,48,18,5,30.05,29.62,7,1,0,0.00
2013-2-19,62,41,18,33,6,-10,63,28,9,30.14,29.57,11,1,0,0.00
2013-2-20,53,43,34,34,27,14,77,56,23,29.57,29.34,8,1,0,0.00
2013-2-21,51,38,29,27,21,14,84,53,23,29.85,29.45,7,1,0,0.02
2013-2-22,45,34,25,21,17,8,70,52,24,30.06,29.83,8,0,0,0.00
2013-2-23,52,34,16,16,10,6,68,41,17,30.20,29.62,5,0,0,0.00
2013-2-24,44,36,30,23,12,0,76,41,19,29.87,29.57,14,3,0,0.00
2013-2-25,52,38,26,22,6,-3,72,31,12,30.11,29.85,8,2,0,0.00
2013-2-26,50,34,17,14,2,-12,70,30,10,30.07,29.78,22,3,0,0.00
2013-2-27,49,33,16,7,2,-6,59,29,13,30.38,30.03,3,0,0,0.00
2013-2-28,57,37,20,6,0,-8,47,24,7,30.42,30.17,7,1,0,0.00